Enter the Airport ICAO Code

Search by Airport or City

Current Weather

MROC | Juan Santamaría International Airport

San José, Costa Rica

Last Update 34 Minutes Ago

Clear Sky

Temperature of 21 ºC

Moderate to Strong Winds from East with Gusts

Temperature

21 ºC

Dew Point Temperature

16 ºC

Relative Humidity

73.25 %

Wind Direction

East (110º, Without Significant Variations)

Wind Velocity

33 km/h (18 kt)

Gusts

56 km/h (30 kt)

Visibility

No Significant Reductions

Sea Level Pressure

30.00 inHg (Inches of Mercury)

Layers of Clouds

None

METAR MROC 090900Z 11018G30KT CAVOK 21/16 A3000 NOSIG

Weather Forecast

MROC | Juan Santamaría International Airport

San José, Costa Rica

Forecast valid for the next 20 Hours

From now on it is expected:

Sky with Few Clouds

Moderate Winds from East

From now on it is expected 2 hours with intermittent periods of:

Moderate Winds from East with Gusts

In 3 hours it is expected the begining of 11 hours with intermittent periods of:

Moderate to Strong Winds from East with Gusts

Maximum Temperature

29 ºC in 9 Hours

Minimum Temperature

17 ºC in 1 Hour

TAF MROC 090500Z 0906/1006 10015KT 9999 FEW040 TX29/0919Z TN17/0911Z TEMPO 0906/0912 09015G25KT TEMPO 0913/0924 11020G32KT